METAR AND TAF INFORMATION
METAR FOR LIMJ
ADDS - METARS form results

(0332 UTC 29 January 2020)
Data provider http://aviationweather.gov/metar/data/
 
METAR text: LIMJ 290320Z VRB02KT CAVOK 08/03 Q1008
Conditions at: LIMJ (GENOVA/SESTRI , IT) observed 0320 UTC 29 January 2020
Temperature: 8.0°C (46°F)
Dewpoint: 3.0°C (37°F) [RH = 71%]
Pressure (altimeter): 29.76 inches Hg (1008.0 mb)
Winds: variable direction winds at 2 MPH (2 knots; 1.0 m/s)
Visibility: 6 or more miles (10+ km)
Ceiling: ceiling and visibility are OK
Clouds: unknown
Weather: no significant weather observed at this time

METAR text: LIMJ 290250Z 01004KT 340V040 CAVOK 08/03 Q1008
Conditions at: LIMJ (GENOVA/SESTRI , IT) observed 0250 UTC 29 January 2020
Temperature: 8.0°C (46°F)
Dewpoint: 3.0°C (37°F) [RH = 71%]
Pressure (altimeter): 29.76 inches Hg (1008.0 mb)
Winds: from the N (10 degrees) at 5 MPH (4 knots; 2.1 m/s)
Visibility: 6 or more miles (10+ km)
Ceiling: ceiling and visibility are OK
Clouds: unknown
Weather: no significant weather observed at this time

Forecast for: LIMJ (GENOVA/SESTRI , IT)
Text: TAF LIMJ 282300Z 2900/2924 11015KT CAVOK
Forecast period: 0000 UTC 29 January 2020 to 0000 UTC 30 January 2020
Forecast type: FROM: standard forecast or significant change
Winds: from the ESE (110 degrees) at 17 MPH (15 knots; 7.7 m/s)
Visibility: 6 or more miles 10+ km)
Ceiling: unknown
Clouds: missing
Weather: NSW  (no significant weather)

 AIRPORT MAP

 RUNWAY INFORMATION
Runway 10 Runway length 9564 ft Runway width 148 ft
Runway elevation 9 ft Runway displaced threshold 0 ft Runway heading 105
Runway 28 Runway length 9564 ft Runway width 148 ft
Runway elevation 12 ft Runway displaced threshold 528 ft Runway heading 285

 AIRPORT FREQUENCIES
Type APP Name APP Frequency 119.6 MHZ
Type ATIS Name ATIS Frequency 122.825 MHZ
Type TWR Name TWR Frequency 118.6 MHZ

 AIRPORT NEAR NAVIGATION AIDS
Type VOR-DME Name Genova Frequency 112800 KHZ
Type NDB Name Genova Frequency 318 KHZ
Type VOR-DME Name Genova Sestri Frequency 108600 KHZ